createdAt,value
2019-06-01T00:00:53.438Z,100.00
2019-06-01T00:03:20.216Z,100.00
2019-06-01T00:05:47.036Z,100.00
2019-06-01T00:08:13.808Z,100.00
2019-06-01T00:10:41.060Z,100.00
2019-06-01T00:13:08.162Z,100.00
2019-06-01T00:15:35.048Z,100.00
2019-06-01T00:18:01.907Z,100.00
2019-06-01T00:20:28.959Z,100.00
2019-06-01T00:22:55.770Z,100.00
2019-06-01T00:25:22.921Z,100.00
2019-06-01T00:27:49.854Z,100.00
2019-06-01T00:30:26.619Z,100.00
2019-06-01T00:32:45.605Z,100.00
2019-06-01T00:35:12.420Z,100.00
2019-06-01T00:37:39.171Z,100.00
2019-06-01T00:40:06.805Z,100.00
2019-06-01T00:42:33.642Z,100.00
2019-06-01T00:45:00.557Z,100.00
2019-06-01T00:47:27.530Z,100.00
2019-06-01T00:49:54.357Z,100.00
2019-06-01T00:52:21.364Z,100.00
2019-06-01T00:54:49.385Z,100.00
2019-06-01T00:57:16.491Z,100.00
2019-06-01T00:59:43.673Z,100.00
2019-06-01T01:02:10.500Z,100.00
2019-06-01T01:04:37.303Z,100.00
2019-06-01T01:07:04.186Z,100.00
2019-06-01T01:09:30.980Z,100.00
2019-06-01T01:11:57.737Z,100.00
2019-06-01T01:14:25.539Z,100.00
2019-06-01T01:16:54.026Z,100.00
2019-06-01T01:19:21.122Z,100.00
2019-06-01T01:21:49.934Z,100.00
2019-06-01T01:24:17.161Z,100.00
2019-06-01T01:26:43.898Z,100.00
2019-06-01T01:29:11.050Z,100.00
2019-06-01T01:31:37.939Z,100.00
2019-06-01T01:34:04.693Z,100.00
2019-06-01T01:36:32.804Z,100.00
2019-06-01T01:38:59.568Z,100.00
2019-06-01T01:41:26.379Z,100.00
2019-06-01T01:43:54.514Z,100.00
2019-06-01T01:46:21.634Z,100.00
2019-06-01T01:48:48.442Z,100.00
2019-06-01T01:51:15.302Z,100.00
2019-06-01T01:53:42.154Z,100.00
2019-06-01T01:56:09.130Z,100.00
2019-06-01T01:58:35.901Z,100.00
2019-06-01T02:01:20.803Z,100.00
2019-06-01T02:03:31.453Z,100.00
2019-06-01T02:05:59.072Z,100.00
2019-06-01T02:08:26.102Z,100.00
2019-06-01T02:10:53.287Z,100.00
2019-06-01T02:13:20.262Z,100.00
2019-06-01T02:15:48.222Z,100.00
2019-06-01T02:18:15.218Z,100.00
2019-06-01T02:20:42.123Z,100.00
2019-06-01T02:23:09.007Z,100.00
2019-06-01T02:25:35.900Z,100.00
2019-06-01T02:28:03.372Z,100.00
2019-06-01T02:30:30.685Z,100.00
2019-06-01T02:32:58.463Z,100.00
2019-06-01T02:35:26.318Z,100.00
2019-06-01T02:37:54.456Z,100.00
2019-06-01T02:40:21.776Z,100.00
2019-06-01T02:42:49.473Z,100.00
2019-06-01T02:45:16.928Z,100.00
2019-06-01T02:47:55.348Z,100.00
2019-06-01T02:50:22.245Z,100.00
2019-06-01T02:52:49.218Z,100.00
2019-06-01T02:55:17.016Z,100.00
2019-06-01T02:57:43.940Z,100.00
2019-06-01T03:00:11.508Z,100.00
2019-06-01T03:02:38.370Z,100.00
2019-06-01T03:05:05.718Z,100.00
2019-06-01T03:07:32.481Z,100.00
2019-06-01T03:10:00.879Z,100.00
2019-06-01T03:12:29.114Z,100.00
2019-06-01T03:14:56.279Z,100.00
2019-06-01T03:17:24.265Z,100.00
2019-06-01T03:19:51.507Z,100.00
2019-06-01T03:22:18.882Z,100.00
2019-06-01T03:24:47.184Z,100.00
2019-06-01T03:27:15.073Z,100.00
2019-06-01T03:29:46.931Z,100.00
2019-06-01T03:32:33.203Z,100.00
2019-06-01T03:34:42.502Z,100.00
2019-06-01T03:37:09.267Z,100.00
2019-06-01T03:39:36.146Z,100.00
2019-06-01T03:42:03.409Z,100.00
2019-06-01T03:44:30.330Z,100.00
2019-06-01T03:46:57.492Z,100.00
2019-06-01T03:49:24.648Z,100.00
2019-06-01T03:51:51.559Z,100.00
2019-06-01T03:54:18.471Z,100.00
2019-06-01T03:56:45.282Z,100.00
2019-06-01T03:59:12.227Z,100.00
2019-06-01T04:01:38.978Z,100.00
2019-06-01T04:04:07.150Z,100.00
2019-06-01T04:06:34.116Z,100.00
2019-06-01T04:09:01.595Z,100.00
2019-06-01T04:11:28.589Z,100.00
2019-06-01T04:13:55.427Z,100.00
2019-06-01T04:16:22.409Z,100.00
2019-06-01T04:18:49.273Z,100.00
2019-06-01T04:21:16.144Z,100.00
2019-06-01T04:23:42.926Z,100.00
2019-06-01T04:26:10.381Z,100.00
2019-06-01T04:28:37.288Z,100.00
2019-06-01T04:31:04.609Z,100.00
2019-06-01T04:33:31.555Z,100.00
2019-06-01T04:35:58.440Z,100.00
2019-06-01T04:38:25.204Z,100.00
2019-06-01T04:40:51.953Z,100.00
2019-06-01T04:43:19.114Z,100.00
2019-06-01T04:45:46.223Z,100.00
2019-06-01T04:48:13.126Z,100.00
2019-06-01T04:50:40.275Z,100.00
2019-06-01T04:53:07.102Z,100.00
2019-06-01T04:55:44.439Z,100.00
2019-06-01T04:58:11.378Z,100.00
2019-06-01T05:00:38.408Z,100.00
2019-06-01T05:03:08.458Z,100.00
2019-06-01T05:05:34.587Z,100.00
2019-06-01T05:08:01.752Z,100.00
2019-06-01T05:10:28.790Z,100.00
2019-06-01T05:12:55.564Z,100.00
2019-06-01T05:15:22.376Z,100.00
2019-06-01T05:17:49.241Z,100.00
2019-06-01T05:20:16.969Z,100.00
2019-06-01T05:22:43.824Z,100.00
2019-06-01T05:25:12.191Z,100.00
2019-06-01T05:27:39.388Z,100.00
2019-06-01T05:30:07.298Z,100.00
2019-06-01T05:32:34.362Z,100.00
2019-06-01T05:35:01.228Z,100.00
2019-06-01T05:37:28.142Z,100.00
2019-06-01T05:39:54.911Z,100.00
2019-06-01T05:42:22.074Z,100.00
2019-06-01T05:44:48.813Z,100.00
2019-06-01T05:47:16.236Z,100.00
2019-06-01T05:49:43.515Z,100.00
2019-06-01T05:52:10.413Z,100.00
2019-06-01T05:54:37.280Z,100.00
2019-06-01T05:57:04.190Z,100.00
2019-06-01T05:59:30.924Z,100.00
2019-06-01T06:01:57.733Z,100.00
2019-06-01T06:04:24.519Z,100.00
2019-06-01T06:06:51.325Z,100.00
2019-06-01T06:09:19.233Z,100.00
2019-06-01T06:11:48.470Z,100.00
2019-06-01T06:14:15.549Z,100.00
2019-06-01T06:16:42.306Z,100.00
2019-06-01T06:19:09.108Z,100.00
2019-06-01T06:21:36.018Z,100.00
2019-06-01T06:24:02.960Z,100.00
2019-06-01T06:26:29.748Z,100.00
2019-06-01T06:28:56.530Z,100.00
2019-06-01T06:31:23.427Z,100.00
2019-06-01T06:33:56.465Z,100.00
2019-06-01T06:36:19.784Z,100.00
2019-06-01T06:38:47.041Z,100.00
2019-06-01T06:41:14.003Z,100.00
2019-06-01T06:43:40.913Z,100.00
2019-06-01T06:46:07.670Z,100.00
2019-06-01T06:48:34.372Z,100.00
2019-06-01T06:51:01.166Z,100.00
2019-06-01T06:53:34.501Z,100.00
2019-06-01T06:55:56.669Z,99.99
2019-06-01T06:58:24.460Z,100.00
2019-06-01T07:00:51.313Z,100.00
2019-06-01T07:03:19.442Z,98.35
2019-06-01T07:05:46.892Z,93.72
2019-06-01T07:08:13.838Z,94.67
2019-06-01T07:10:40.941Z,97.86
2019-06-01T07:13:07.796Z,93.89
2019-06-01T07:15:34.601Z,87.59
2019-06-01T07:18:01.467Z,88.86
2019-06-01T07:20:28.343Z,86.45
2019-06-01T07:22:55.282Z,87.31
2019-06-01T07:25:22.219Z,83.96
2019-06-01T07:27:49.083Z,84.81
2019-06-01T07:30:16.422Z,81.14
2019-06-01T07:32:43.304Z,81.22
2019-06-01T07:35:10.201Z,80.48
2019-06-01T07:37:36.865Z,82.52
2019-06-01T07:40:04.257Z,78.08
2019-06-01T07:42:31.170Z,76.50
2019-06-01T07:44:58.774Z,75.23
2019-06-01T07:47:27.218Z,73.74
2019-06-01T07:49:54.422Z,75.76
2019-06-01T07:52:22.350Z,72.15
2019-06-01T07:54:49.840Z,68.45
2019-06-01T07:57:17.007Z,73.15
2019-06-01T07:59:44.193Z,72.74
2019-06-01T08:02:11.079Z,69.02
2019-06-01T08:04:52.632Z,70.74
2019-06-01T08:07:06.648Z,69.74
2019-06-01T08:09:33.419Z,71.88
2019-06-01T08:12:00.504Z,70.72
2019-06-01T08:14:28.555Z,73.64
2019-06-01T08:16:55.902Z,71.53
2019-06-01T08:19:23.862Z,68.99
2019-06-01T08:21:50.765Z,62.96
2019-06-01T08:24:17.763Z,65.71
2019-06-01T08:26:44.555Z,58.26
2019-06-01T08:29:11.833Z,57.71
2019-06-01T08:31:39.087Z,57.28
2019-06-01T08:34:05.866Z,60.18
2019-06-01T08:36:33.952Z,58.60
2019-06-01T08:39:00.995Z,58.90
2019-06-01T08:41:27.889Z,58.29
2019-06-01T08:43:54.768Z,58.41
2019-06-01T08:46:21.554Z,54.57
2019-06-01T08:48:48.408Z,56.40
2019-06-01T08:51:15.326Z,57.53
2019-06-01T08:53:42.094Z,53.94
2019-06-01T08:56:08.853Z,51.72
2019-06-01T08:58:35.655Z,53.83
2019-06-01T09:01:02.542Z,53.02
2019-06-01T09:03:29.808Z,50.82
2019-06-01T09:05:56.633Z,50.25
2019-06-01T09:08:24.370Z,54.77
2019-06-01T09:10:52.318Z,54.59
2019-06-01T09:13:19.305Z,51.58
2019-06-01T09:15:46.205Z,52.08
2019-06-01T09:18:13.169Z,50.49
2019-06-01T09:20:39.935Z,53.06
2019-06-01T09:23:06.729Z,53.11
2019-06-01T09:25:33.845Z,50.19
2019-06-01T09:28:01.125Z,56.90
2019-06-01T09:30:28.058Z,49.25
2019-06-01T09:32:54.957Z,49.86
2019-06-01T09:35:21.906Z,50.91
2019-06-01T09:37:48.773Z,52.10
2019-06-01T09:40:16.334Z,49.70
2019-06-01T09:42:43.132Z,48.21
2019-06-01T09:45:10.216Z,48.65
2019-06-01T09:47:37.873Z,44.65
2019-06-01T09:50:06.131Z,45.82
2019-06-01T09:52:33.460Z,45.82
2019-06-01T09:55:00.370Z,44.45
2019-06-01T09:57:27.685Z,46.67
2019-06-01T09:59:54.807Z,50.23
2019-06-01T10:02:21.839Z,51.52
2019-06-01T10:04:48.589Z,56.86
2019-06-01T10:07:15.523Z,52.89
2019-06-01T10:09:42.381Z,48.96
2019-06-01T10:12:09.284Z,43.97
2019-06-01T10:14:36.269Z,45.34
2019-06-01T10:17:03.088Z,45.44
2019-06-01T10:19:34.659Z,41.92
2019-06-01T10:22:01.494Z,49.52
2019-06-01T10:24:28.367Z,43.91
2019-06-01T10:26:55.748Z,42.74
2019-06-01T10:29:22.549Z,41.10
2019-06-01T10:31:49.365Z,42.75
2019-06-01T10:34:16.116Z,39.91
2019-06-01T10:36:42.877Z,43.28
2019-06-01T10:39:09.778Z,44.86
2019-06-01T10:41:37.451Z,47.80
2019-06-01T10:44:04.437Z,37.66
2019-06-01T10:46:31.794Z,39.42
2019-06-01T10:48:58.779Z,38.53
2019-06-01T10:51:25.688Z,38.47
2019-06-01T10:53:52.828Z,36.17
2019-06-01T10:56:19.619Z,40.28
2019-06-01T10:58:59.335Z,33.98
2019-06-01T11:01:15.043Z,34.09
2019-06-01T11:03:42.842Z,34.05
2019-06-01T11:06:09.753Z,38.27
2019-06-01T11:08:37.163Z,35.05
2019-06-01T11:11:04.253Z,34.42
2019-06-01T11:13:32.963Z,35.25
2019-06-01T11:16:00.556Z,33.18
2019-06-01T11:18:27.424Z,31.54
2019-06-01T11:20:54.177Z,30.96
2019-06-01T11:23:21.241Z,32.98
2019-06-01T11:25:48.378Z,31.76
2019-06-01T11:28:15.195Z,31.96
2019-06-01T11:30:42.010Z,33.42
2019-06-01T11:33:08.769Z,30.93
2019-06-01T11:35:37.079Z,30.22
2019-06-01T11:38:04.052Z,27.97
2019-06-01T11:40:31.678Z,36.89
2019-06-01T11:42:58.817Z,31.23
2019-06-01T11:45:25.787Z,28.76
2019-06-01T11:47:52.657Z,26.41
2019-06-01T11:50:19.603Z,26.74
2019-06-01T11:52:46.469Z,26.00
2019-06-01T11:55:13.323Z,32.83
2019-06-01T11:57:41.587Z,32.81
2019-06-01T12:00:10.068Z,27.37
2019-06-01T12:02:37.447Z,28.09
2019-06-01T12:05:05.785Z,29.49
2019-06-01T12:07:32.638Z,28.24
2019-06-01T12:09:59.455Z,31.56
2019-06-01T12:12:36.002Z,30.94
2019-06-01T12:15:03.400Z,34.11
2019-06-01T12:17:30.167Z,33.16
2019-06-01T12:19:57.733Z,32.96
2019-06-01T12:22:24.527Z,32.82
2019-06-01T12:24:51.275Z,35.31
2019-06-01T12:27:18.211Z,35.35
2019-06-01T12:29:46.147Z,32.57
2019-06-01T12:32:12.927Z,33.22
2019-06-01T12:34:39.988Z,32.52
2019-06-01T12:37:06.896Z,32.65
2019-06-01T12:39:33.971Z,35.88
2019-06-01T12:42:00.900Z,36.01
2019-06-01T12:44:27.647Z,36.59
2019-06-01T12:46:54.719Z,35.72
2019-06-01T12:49:21.909Z,33.46
2019-06-01T12:51:49.014Z,33.53
2019-06-01T12:54:16.245Z,37.27
2019-06-01T12:56:43.270Z,34.51
2019-06-01T12:59:10.546Z,34.41
2019-06-01T13:01:37.520Z,37.07
2019-06-01T13:04:04.412Z,33.96
2019-06-01T13:06:31.412Z,33.61
2019-06-01T13:08:58.312Z,33.46
2019-06-01T13:11:28.321Z,34.44
2019-06-01T13:13:55.542Z,34.20
2019-06-01T13:16:22.406Z,34.83
2019-06-01T13:18:49.534Z,35.19
2019-06-01T13:21:16.470Z,31.90
2019-06-01T13:23:43.453Z,33.15
2019-06-01T13:26:10.839Z,32.65
2019-06-01T13:28:38.563Z,32.68
2019-06-01T13:31:05.746Z,31.39
2019-06-01T13:33:32.920Z,32.50
2019-06-01T13:35:59.770Z,33.24
2019-06-01T13:38:26.686Z,30.85
2019-06-01T13:40:54.131Z,31.17
2019-06-01T13:43:21.622Z,32.49
2019-06-01T13:45:49.316Z,31.47
2019-06-01T13:48:16.967Z,31.17
2019-06-01T13:50:44.321Z,33.22
2019-06-01T13:53:12.839Z,31.98
2019-06-01T13:55:39.595Z,32.07
2019-06-01T13:58:06.375Z,31.66
2019-06-01T14:00:42.179Z,30.23
2019-06-01T14:03:08.978Z,30.90
2019-06-01T14:05:35.732Z,33.41
2019-06-01T14:08:02.677Z,31.90
2019-06-01T14:10:29.549Z,30.69
2019-06-01T14:12:56.527Z,31.46
2019-06-01T14:15:33.529Z,30.46
2019-06-01T14:18:00.454Z,29.43
2019-06-01T14:20:27.337Z,30.07
2019-06-01T14:22:54.216Z,29.29
2019-06-01T14:25:21.068Z,29.63
2019-06-01T14:27:50.240Z,30.74
2019-06-01T14:30:17.296Z,32.51
2019-06-01T14:32:46.194Z,29.16
2019-06-01T14:35:19.851Z,28.54
2019-06-01T14:37:46.874Z,28.31
2019-06-01T14:40:28.098Z,29.85
2019-06-01T14:42:55.657Z,29.53
2019-06-01T14:45:22.765Z,29.71
2019-06-01T14:47:50.004Z,32.17
2019-06-01T14:50:16.858Z,29.73
2019-06-01T14:52:49.810Z,31.34
2019-06-01T14:55:16.739Z,31.70
2019-06-01T14:57:44.099Z,27.55
2019-06-01T15:00:11.271Z,26.10
2019-06-01T15:02:38.290Z,27.43
2019-06-01T15:05:05.713Z,25.90
2019-06-01T15:07:32.639Z,26.19
2019-06-01T15:09:59.507Z,27.44
2019-06-01T15:12:26.346Z,23.01
2019-06-01T15:14:53.232Z,18.59
2019-06-01T15:17:20.137Z,17.21
2019-06-01T15:19:47.019Z,18.48
2019-06-01T15:22:15.696Z,20.99
2019-06-01T15:24:42.582Z,21.58
2019-06-01T15:27:09.488Z,18.68
2019-06-01T15:29:36.727Z,19.90
2019-06-01T15:32:03.840Z,16.73
2019-06-01T15:34:31.635Z,14.99
2019-06-01T15:36:59.705Z,14.64
2019-06-01T15:39:42.568Z,15.77
2019-06-01T15:42:11.238Z,16.54
2019-06-01T15:44:38.344Z,16.89
2019-06-01T15:47:05.239Z,16.73
2019-06-01T15:49:32.222Z,15.89
2019-06-01T15:52:03.733Z,15.98
2019-06-01T15:54:30.898Z,16.46
2019-06-01T15:56:58.475Z,17.70
2019-06-01T15:59:25.948Z,17.76
2019-06-01T16:01:53.380Z,18.90
2019-06-01T16:04:20.260Z,22.79
2019-06-01T16:06:48.302Z,22.75
2019-06-01T16:09:16.676Z,24.63
2019-06-01T16:11:45.092Z,26.81
2019-06-01T16:14:12.903Z,29.60
2019-06-01T16:16:40.611Z,28.40
2019-06-01T16:19:08.441Z,30.46
2019-06-01T16:21:35.857Z,29.12
2019-06-01T16:24:04.452Z,30.07
2019-06-01T16:26:34.959Z,30.38
2019-06-01T16:29:03.468Z,30.36
2019-06-01T16:31:31.101Z,31.28
2019-06-01T16:34:02.730Z,32.08
2019-06-01T16:36:31.123Z,33.19
2019-06-01T16:39:03.052Z,33.05
2019-06-01T16:41:26.972Z,31.53
2019-06-01T16:43:55.392Z,33.82
2019-06-01T16:46:22.773Z,32.17
2019-06-01T16:48:50.951Z,33.31
2019-06-01T16:51:17.982Z,31.40
2019-06-01T16:53:44.957Z,32.70
2019-06-01T16:56:12.416Z,33.56
2019-06-01T16:58:39.575Z,33.38
2019-06-01T17:01:07.610Z,33.09
2019-06-01T17:03:34.478Z,33.78
2019-06-01T17:06:02.873Z,35.00
2019-06-01T17:08:30.212Z,33.67
2019-06-01T17:10:58.656Z,34.12
2019-06-01T17:13:26.299Z,34.32
2019-06-01T17:15:53.965Z,35.39
2019-06-01T17:18:23.145Z,33.16
2019-06-01T17:20:51.140Z,34.88
2019-06-01T17:23:26.993Z,33.33
2019-06-01T17:25:47.604Z,33.33
2019-06-01T17:28:15.697Z,32.40
2019-06-01T17:30:44.228Z,33.08
2019-06-01T17:33:11.275Z,33.07
2019-06-01T17:35:38.160Z,33.09
2019-06-01T17:38:07.534Z,34.10
2019-06-01T17:40:37.821Z,33.67
2019-06-01T17:43:16.683Z,33.09
2019-06-01T17:45:43.572Z,32.73
2019-06-01T17:48:25.735Z,33.67
2019-06-01T17:50:41.539Z,33.25
2019-06-01T17:53:11.084Z,33.61
2019-06-01T17:55:38.579Z,33.62
2019-06-01T17:58:07.519Z,34.33
2019-06-01T18:00:39.410Z,34.80
2019-06-01T18:03:08.007Z,35.83
2019-06-01T18:05:35.942Z,35.94
2019-06-01T18:08:03.866Z,35.90
2019-06-01T18:10:31.005Z,36.13
2019-06-01T18:12:57.985Z,36.90
2019-06-01T18:15:25.917Z,38.61
2019-06-01T18:17:52.895Z,38.40
2019-06-01T18:20:20.333Z,40.67
2019-06-01T18:22:47.356Z,40.58
2019-06-01T18:25:18.647Z,38.49
2019-06-01T18:27:46.045Z,39.80
2019-06-01T18:30:14.092Z,41.93
2019-06-01T18:32:43.825Z,41.76
2019-06-01T18:35:11.470Z,43.01
2019-06-01T18:37:38.432Z,41.77
2019-06-01T18:40:07.900Z,45.63
2019-06-01T18:42:35.828Z,42.67
2019-06-01T18:45:03.563Z,47.85
2019-06-01T18:47:32.689Z,52.35
2019-06-01T18:50:07.936Z,53.78
2019-06-01T18:52:35.229Z,54.70
2019-06-01T18:55:04.302Z,56.24
2019-06-01T18:57:31.750Z,56.50
2019-06-01T18:59:58.550Z,58.75
2019-06-01T19:02:25.635Z,59.32
2019-06-01T19:04:52.544Z,61.01
2019-06-01T19:07:19.438Z,62.13
2019-06-01T19:09:47.050Z,61.03
2019-06-01T19:12:14.190Z,61.89
2019-06-01T19:14:41.543Z,63.34
2019-06-01T19:17:08.353Z,64.84
2019-06-01T19:19:35.975Z,65.72
2019-06-01T19:22:02.831Z,66.14
2019-06-01T19:24:30.091Z,67.27
2019-06-01T19:26:56.971Z,68.11
2019-06-01T19:29:24.594Z,68.87
2019-06-01T19:31:51.932Z,68.80
2019-06-01T19:34:20.378Z,70.21
2019-06-01T19:36:47.315Z,70.97
2019-06-01T19:39:15.210Z,72.21
2019-06-01T19:41:45.206Z,71.88
2019-06-01T19:44:11.569Z,71.89
2019-06-01T19:46:38.713Z,70.59
2019-06-01T19:49:06.340Z,71.72
2019-06-01T19:51:33.252Z,71.97
2019-06-01T19:54:00.656Z,74.17
2019-06-01T19:56:27.411Z,74.60
2019-06-01T19:58:54.418Z,74.87
2019-06-01T20:01:22.718Z,75.90
2019-06-01T20:03:50.361Z,76.76
2019-06-01T20:06:17.142Z,77.35
2019-06-01T20:08:43.975Z,77.28
2019-06-01T20:11:11.425Z,78.31
2019-06-01T20:13:38.366Z,79.18
2019-06-01T20:16:05.327Z,80.09
2019-06-01T20:18:32.096Z,80.28
2019-06-01T20:20:59.489Z,80.33
2019-06-01T20:23:26.480Z,81.10
2019-06-01T20:25:53.239Z,81.52
2019-06-01T20:28:21.682Z,81.88
2019-06-01T20:30:48.596Z,81.54
2019-06-01T20:33:16.005Z,82.12
2019-06-01T20:35:43.414Z,81.72
2019-06-01T20:38:12.211Z,81.96
2019-06-01T20:40:39.178Z,81.85
2019-06-01T20:43:06.108Z,83.08
2019-06-01T20:45:32.995Z,83.11
2019-06-01T20:47:59.879Z,83.83
2019-06-01T20:50:27.551Z,83.47
2019-06-01T20:52:54.631Z,83.08
2019-06-01T20:55:21.390Z,83.51
2019-06-01T20:57:48.294Z,84.56
2019-06-01T21:00:15.998Z,85.28
2019-06-01T21:02:43.042Z,86.07
2019-06-01T21:05:09.945Z,86.13
2019-06-01T21:07:36.788Z,87.06
2019-06-01T21:10:04.192Z,87.35
2019-06-01T21:12:43.978Z,87.62
2019-06-01T21:14:59.785Z,87.51
2019-06-01T21:17:26.585Z,86.53
2019-06-01T21:19:53.344Z,82.15
2019-06-01T21:22:20.706Z,82.42
2019-06-01T21:24:47.769Z,79.01
2019-06-01T21:27:14.680Z,83.45
2019-06-01T21:29:42.014Z,83.42
2019-06-01T21:32:09.252Z,84.29
2019-06-01T21:34:36.362Z,86.12
2019-06-01T21:37:03.856Z,86.66
2019-06-01T21:39:30.690Z,86.88
2019-06-01T21:41:57.529Z,86.78
2019-06-01T21:44:25.683Z,87.25
2019-06-01T21:46:52.915Z,87.61
2019-06-01T21:49:20.384Z,87.78
2019-06-01T21:51:47.260Z,87.96
2019-06-01T21:54:13.946Z,87.28
2019-06-01T21:56:40.799Z,87.31
2019-06-01T21:59:08.194Z,87.54
2019-06-01T22:01:34.953Z,87.32
2019-06-01T22:04:01.858Z,88.26
2019-06-01T22:06:28.709Z,88.43
2019-06-01T22:08:55.516Z,87.91
2019-06-01T22:11:23.512Z,86.59
2019-06-01T22:13:50.728Z,87.69
2019-06-01T22:16:17.561Z,85.82
2019-06-01T22:18:44.520Z,85.83
2019-06-01T22:21:11.377Z,86.26
2019-06-01T22:23:38.236Z,88.42
2019-06-01T22:26:05.274Z,87.77
2019-06-01T22:28:32.481Z,87.64
2019-06-01T22:30:59.520Z,87.75
2019-06-01T22:33:26.602Z,85.00
2019-06-01T22:35:53.408Z,85.78
2019-06-01T22:38:20.209Z,87.60
2019-06-01T22:40:53.400Z,87.02
2019-06-01T22:43:36.839Z,88.89
2019-06-01T22:45:49.580Z,88.99
2019-06-01T22:48:16.533Z,89.78
2019-06-01T22:50:43.331Z,89.72
2019-06-01T22:53:10.092Z,90.72
2019-06-01T22:55:36.902Z,90.75
2019-06-01T22:58:03.665Z,89.95
2019-06-01T23:00:30.397Z,90.59
2019-06-01T23:02:57.876Z,91.01
2019-06-01T23:05:25.111Z,90.29
2019-06-01T23:07:52.342Z,89.04
2019-06-01T23:10:19.190Z,89.11
2019-06-01T23:12:46.101Z,89.24
2019-06-01T23:15:13.177Z,89.67
2019-06-01T23:17:39.947Z,89.88
2019-06-01T23:20:07.023Z,90.16
2019-06-01T23:22:33.847Z,91.04
2019-06-01T23:25:00.669Z,91.29
2019-06-01T23:27:28.283Z,91.79
2019-06-01T23:29:55.334Z,92.78
2019-06-01T23:32:22.440Z,93.39
2019-06-01T23:34:49.333Z,94.05
2019-06-01T23:37:23.001Z,94.50
2019-06-01T23:39:49.758Z,95.53
2019-06-01T23:42:16.477Z,95.94
2019-06-01T23:44:43.247Z,96.56
2019-06-01T23:47:10.394Z,96.65
2019-06-01T23:49:37.241Z,97.16
2019-06-01T23:52:04.158Z,97.81
2019-06-01T23:54:32.430Z,98.26
2019-06-01T23:56:59.555Z,98.28
2019-06-01T23:59:27.939Z,98.99
